.
WxDataArchive / Data Records for 2015-11-20
2015-11-19 November 2015 2015-11-21

Data Records for Friday, 20 November 2015

Time	Temp	Chill	HIndex	Humid	Dewpt	 Wind 	HiWind	WindDir	Rain 	Barom
-----	----	-----	------	-----	-----	------	------	-------	-----	-----
00:00	37.0	37.0	37.0	46	18.2	0	2	248	0.00	30.133 
00:05	36.9	36.9	36.9	46	18.1	1	4	248	0.00	30.133 
00:10	37.0	37.0	37.0	46	18.2	1	3	248	0.00	30.133 
00:15	36.9	36.9	36.9	46	18.1	0	3	248	0.00	30.134 
00:20	36.9	36.9	36.9	45	17.6	1	5	248	0.00	30.134 
00:25	36.9	36.9	36.9	45	17.6	1	4	248	0.00	30.134 
00:30	36.9	36.9	36.9	45	17.6	1	5	248	0.00	30.140 
00:35	36.9	36.9	36.9	45	17.6	1	5	248	0.00	30.140 
00:40	36.9	36.9	36.9	44	17.0	0	3	248	0.00	30.140 
00:45	36.9	36.9	36.9	43	16.5	1	3	248	0.00	30.141 
00:50	36.9	36.9	36.9	43	16.5	1	3	248	0.00	30.141 
00:55	36.9	36.9	36.9	44	17.0	0	4	248	0.00	30.141 
01:00	36.8	36.8	36.8	44	17.0	1	3	248	0.00	30.145 
01:05	36.6	36.6	36.6	44	16.8	1	3	248	0.00	30.145 
01:10	36.6	36.6	36.6	44	16.8	1	5	248	0.00	30.145 
01:15	36.6	36.6	36.6	43	16.2	1	3	248	0.00	30.141 
01:20	36.5	36.5	36.5	43	16.2	0	2	248	0.00	30.141 
01:25	36.3	36.3	36.3	44	16.5	0	4	248	0.00	30.141 
01:30	36.2	36.2	36.2	45	16.9	0	2	248	0.00	30.144 
01:35	35.9	35.9	35.9	45	16.7	0	1	248	0.00	30.144 
01:40	35.6	35.6	35.6	46	16.9	0	1	248	0.00	30.144 
01:45	35.5	35.5	35.5	46	16.8	0	2	248	0.00	30.146 
01:50	35.3	35.3	35.3	48	17.6	0	1	248	0.00	30.146 
01:55	35.0	35.0	35.0	49	17.8	0	1	248	0.00	30.146 
02:00	34.9	34.9	34.9	49	17.7	0	2	248	0.00	30.148 
02:05	34.9	34.9	34.9	49	17.7	0	2	248	0.00	30.148 
02:10	34.9	34.9	34.9	48	17.2	0	3	248	0.00	30.148 
02:15	34.9	34.9	34.9	48	17.2	0	2	248	0.00	30.151 
02:20	34.9	34.9	34.9	47	16.7	0	3	248	0.00	30.151 
02:25	35.0	35.0	35.0	46	16.3	0	4	248	0.00	30.151 
02:30	35.0	35.0	35.0	46	16.3	0	1	248	0.00	30.152 
02:35	35.0	35.0	35.0	46	16.3	1	3	248	0.00	30.152 
02:40	35.2	35.2	35.2	46	16.5	0	2	248	0.00	30.152 
02:45	35.2	35.2	35.2	46	16.5	0	3	248	0.00	30.160 
02:50	35.2	35.2	35.2	46	16.5	0	3	248	0.00	30.160 
02:55	35.0	35.0	35.0	46	16.3	0	2	248	0.00	30.160 
03:00	35.0	35.0	35.0	46	16.3	0	3	248	0.00	30.164 
03:05	35.0	35.0	35.0	46	16.3	0	2	248	0.00	30.164 
03:10	35.0	35.0	35.0	46	16.3	0	4	248	0.00	30.164 
03:15	35.0	35.0	35.0	46	16.3	0	2	248	0.00	30.165 
03:20	34.9	34.9	34.9	46	16.2	1	4	248	0.00	30.165 
03:25	35.0	35.0	35.0	46	16.3	1	4	248	0.00	30.165 
03:30	35.0	35.0	35.0	46	16.3	0	4	248	0.00	30.168 
03:35	34.9	34.9	34.9	47	16.7	0	3	248	0.00	30.168 
03:40	34.9	34.9	34.9	47	16.7	0	3	248	0.00	30.168 
03:45	34.7	34.7	34.7	48	17.0	0	1	248	0.00	30.168 
03:50	34.6	34.6	34.6	48	16.9	0	3	248	0.00	30.168 
03:55	34.6	34.6	34.6	48	16.9	0	2	248	0.00	30.168 
04:00	34.4	34.4	34.4	49	17.2	0	2	248	0.00	30.175 
04:05	34.3	34.3	34.3	49	17.1	0	3	248	0.00	30.175 
04:10	34.3	34.3	34.3	50	17.6	1	4	248	0.00	30.175 
04:15	34.3	34.3	34.3	50	17.6	0	4	225	0.00	30.183 
04:20	34.1	34.1	34.1	50	17.4	0	1	248	0.00	30.183 
04:25	34.1	34.1	34.1	50	17.4	1	3	248	0.00	30.183 
04:30	34.1	34.1	34.1	50	17.4	0	2	248	0.00	30.186 
04:35	34.1	34.1	34.1	50	17.4	0	2	248	0.00	30.186 
04:40	34.1	34.1	34.1	50	17.4	1	3	248	0.00	30.186 
04:45	34.3	34.3	34.3	51	18.1	1	5	248	0.00	30.189 
04:50	34.3	34.3	34.3	51	18.1	0	3	248	0.00	30.189 
04:55	34.1	34.1	34.1	51	17.9	1	4	248	0.00	30.189 
05:00	34.3	34.3	34.3	51	18.1	1	5	248	0.00	30.191 
05:05	34.3	34.3	34.3	50	17.6	0	3	248	0.00	30.191 
05:10	34.3	34.3	34.3	50	17.6	1	7	225	0.00	30.191 
05:15	34.4	34.4	34.4	49	17.2	1	5	225	0.00	30.193 
05:20	34.4	34.4	34.4	49	17.2	1	4	248	0.00	30.193 
05:25	34.4	34.4	34.4	49	17.2	1	3	248	0.00	30.193 
05:30	34.4	34.4	34.4	49	17.2	1	3	248	0.00	30.202 
05:35	34.3	34.3	34.3	49	17.1	1	4	248	0.00	30.202 
05:40	34.3	34.3	34.3	48	16.7	1	5	270	0.00	30.202 
05:45	34.3	34.3	34.3	48	16.7	2	7	248	0.00	30.203 
05:50	34.3	34.3	34.3	47	16.2	1	5	225	0.00	30.203 
05:55	34.3	34.3	34.3	47	16.2	1	3	248	0.00	30.203 
06:00	34.3	34.3	34.3	47	16.2	1	5	248	0.00	30.204 
06:05	34.3	34.3	34.3	47	16.2	1	4	248	0.00	30.204 
06:10	34.1	34.1	34.1	47	16.0	1	5	248	0.00	30.204 
06:15	34.1	34.1	34.1	47	16.0	1	5	248	0.00	30.205 
06:20	34.0	34.0	34.0	46	15.4	1	4	248	0.00	30.205 
06:25	34.0	34.0	34.0	46	15.4	1	6	248	0.00	30.205 
06:30	34.0	34.0	34.0	46	15.4	1	4	248	0.00	30.213 
06:35	33.8	33.8	33.8	46	15.2	1	3	248	0.00	30.213 
06:40	33.8	33.8	33.8	47	15.7	1	4	248	0.00	30.213 
06:45	33.7	33.7	33.7	47	15.6	1	3	248	0.00	30.217 
06:50	33.5	33.5	33.5	47	15.5	1	3	248	0.00	30.217 
06:55	33.5	33.5	33.5	48	15.9	1	5	248	0.00	30.217 
07:00	33.4	33.4	33.4	47	15.4	0	2	248	0.00	30.220 
07:05	33.2	33.2	33.2	48	15.7	1	4	248	0.00	30.220 
07:10	33.1	33.1	33.1	49	16.0	0	3	248	0.00	30.220 
07:15	32.9	32.9	32.9	49	15.9	0	3	248	0.00	30.230 
07:20	32.8	32.8	32.8	50	16.2	0	4	248	0.00	30.230 
07:25	32.8	32.8	32.8	50	16.2	0	2	248	0.00	30.230 
07:30	32.8	32.8	32.8	50	16.2	0	2	248	0.00	30.237 
07:35	32.7	32.7	32.7	51	16.6	0	1	248	0.00	30.237 
07:40	32.7	32.7	32.7	51	16.6	0	3	248	0.00	30.237 
07:45	32.7	32.7	32.7	51	16.6	0	3	248	0.00	30.239 
07:50	32.7	32.7	32.7	52	17.0	0	2	248	0.00	30.239 
07:55	32.7	32.7	32.7	52	17.0	0	3	248	0.00	30.239 
08:00	32.7	32.7	32.7	51	16.6	0	2	248	0.00	30.248 
08:05	32.9	32.9	32.9	50	16.3	1	4	248	0.00	30.248 
08:10	33.2	33.2	33.2	50	16.6	1	4	248	0.00	30.248 
08:15	33.5	33.5	33.5	50	16.9	0	3	248	0.00	30.252 
08:20	33.8	33.8	33.8	50	17.2	1	4	248	0.00	30.252 
08:25	34.1	34.1	34.1	50	17.4	1	6	248	0.00	30.252 
08:30	34.3	34.3	34.3	50	17.6	1	5	248	0.00	30.253 
08:35	34.4	34.4	34.4	49	17.2	0	3	248	0.00	30.253 
08:40	34.6	34.6	34.6	49	17.4	1	3	248	0.00	30.253 
08:45	34.7	34.7	34.7	49	17.5	1	5	248	0.00	30.254 
08:50	35.0	35.0	35.0	49	17.8	1	5	248	0.00	30.254 
08:55	35.2	35.2	35.2	48	17.5	1	5	248	0.00	30.254 
09:00	35.3	35.3	35.3	47	17.1	2	4	292	0.00	30.252 
09:05	35.6	35.6	35.6	47	17.4	1	4	270	0.00	30.252 
09:10	35.9	35.9	35.9	47	17.7	1	4	270	0.00	30.252 
09:15	36.0	36.0	36.0	46	17.3	1	5	248	0.00	30.253 
09:20	36.3	36.3	36.3	44	16.5	1	5	248	0.00	30.253 
09:25	36.6	36.6	36.6	43	16.2	2	5	248	0.00	30.253 
09:30	36.8	36.8	36.8	43	16.4	2	5	248	0.00	30.256 
09:35	37.0	37.0	37.0	41	15.5	2	5	248	0.00	30.256 
09:40	37.2	37.2	37.2	41	15.7	2	5	248	0.00	30.256 
09:45	37.5	37.5	37.5	41	16.0	1	4	248	0.00	30.267 
09:50	37.8	37.8	37.8	41	16.2	2	6	248	0.00	30.267 
09:55	37.9	37.9	37.9	40	15.8	2	6	248	0.00	30.267 
10:00	38.2	38.2	38.2	39	15.4	2	5	270	0.00	30.268 
10:05	38.5	38.5	38.5	38	15.1	2	6	248	0.00	30.268 
10:10	38.8	38.8	38.8	36	14.2	2	6	248	0.00	30.268 
10:15	38.9	38.9	38.9	35	13.6	2	6	248	0.00	30.273 
10:20	39.2	39.2	39.2	34	13.2	2	5	270	0.00	30.273 
10:25	39.5	39.5	39.5	35	14.1	2	5	248	0.00	30.273 
10:30	39.8	39.8	39.8	31	11.7	2	6	270	0.00	30.275 
10:35	39.9	39.9	39.9	33	13.2	2	7	270	0.00	30.275 
10:40	40.1	40.1	40.1	33	13.3	2	4	270	0.00	30.275 
10:45	40.1	40.1	40.1	33	13.3	3	6	248	0.00	30.280 
10:50	40.1	40.1	40.1	33	13.3	2	7	248	0.00	30.280 
10:55	40.2	40.2	40.2	33	13.4	3	6	270	0.00	30.280 
11:00	40.2	37.5	40.2	32	12.7	4	9	248	0.00	30.274 
11:05	40.3	40.3	40.3	33	13.5	2	6	270	0.00	30.274 
11:10	40.5	40.5	40.5	35	15.0	2	6	248	0.00	30.274 
11:15	40.8	40.8	40.8	35	15.3	2	5	248	0.00	30.273 
11:20	41.1	41.1	41.1	32	13.5	2	5	248	0.00	30.273 
11:25	41.3	41.3	41.3	32	13.7	1	7	292	0.00	30.273 
11:30	41.9	41.9	41.9	29	12.0	2	5	270	0.00	30.275 
11:35	42.2	42.2	42.2	26	9.8	3	6	270	0.00	30.275 
11:40	42.3	42.3	42.3	25	9.0	3	6	270	0.00	30.275 
11:45	42.6	42.6	42.6	27	11.0	1	5	270	0.00	30.263 
11:50	42.8	42.8	42.8	27	11.2	1	6	248	0.00	30.263 
11:55	42.9	42.9	42.9	24	8.6	3	7	270	0.00	30.263 
12:00	43.1	43.1	43.1	25	9.7	2	6	270	0.00	30.261 
12:05	43.1	43.1	43.1	24	8.8	2	5	248	0.00	30.261 
12:10	43.2	43.2	43.2	24	8.9	1	6	270	0.00	30.261 
12:15	43.5	43.5	43.5	23	8.2	1	4	248	0.00	30.259 
12:20	43.3	43.3	43.3	23	8.0	3	7	270	0.00	30.259 
12:25	43.5	43.5	43.5	23	8.2	3	6	270	0.00	30.259 
12:30	43.6	43.6	43.6	23	8.3	2	5	270	0.00	30.258 
12:35	43.8	43.8	43.8	24	9.4	2	6	248	0.00	30.258 
12:40	43.9	43.9	43.9	24	9.5	2	6	270	0.00	30.258 
12:45	44.1	44.1	44.1	24	9.6	3	5	270	0.00	30.252 
12:50	44.3	44.3	44.3	24	9.8	2	5	270	0.00	30.252 
12:55	44.2	44.2	44.2	25	10.6	2	7	270	0.00	30.252 
13:00	44.5	44.5	44.5	24	10.0	2	5	292	0.00	30.247 
13:05	44.8	44.8	44.8	24	10.2	2	6	270	0.00	30.247 
13:10	44.8	44.8	44.8	22	8.3	3	7	270	0.00	30.247 
13:15	44.8	44.8	44.8	23	9.3	3	6	270	0.00	30.256 
13:20	44.9	44.9	44.9	22	8.4	3	7	270	0.00	30.256 
13:25	45.1	45.1	45.1	21	7.5	2	5	248	0.00	30.256 
13:30	45.1	45.1	45.1	22	8.6	2	7	292	0.00	30.252 
13:35	45.2	45.2	45.2	22	8.6	2	4	248	0.00	30.252 
13:40	45.7	45.7	45.7	22	9.1	1	4	270	0.00	30.252 
13:45	45.7	45.7	45.7	22	9.1	2	5	270	0.00	30.244 
13:50	45.7	45.7	45.7	22	9.1	2	5	270	0.00	30.244 
13:55	45.8	45.8	45.8	19	5.9	2	4	292	0.00	30.244 
14:00	45.8	45.8	45.8	18	4.7	3	6	270	0.00	30.246 
14:05	45.7	45.7	45.7	20	7.0	1	5	270	0.00	30.246 
14:10	45.5	45.5	45.5	20	6.8	2	6	292	0.00	30.246 
14:15	45.5	45.5	45.5	19	5.7	2	7	292	0.00	30.240 
14:20	45.4	45.4	45.4	19	5.6	2	4	292	0.00	30.240 
14:25	45.5	45.5	45.5	18	4.5	1	4	292	0.00	30.240 
14:30	45.7	45.7	45.7	20	7.0	1	5	292	0.00	30.235 
14:35	45.8	45.8	45.8	20	7.0	1	3	270	0.00	30.235 
14:40	46.0	46.0	46.0	20	7.2	1	3	270	0.00	30.235 
14:45	45.8	45.8	45.8	21	8.1	1	3	270	0.00	30.231 
14:50	45.8	45.8	45.8	20	7.0	1	4	270	0.00	30.231 
14:55	46.1	46.1	46.1	20	7.3	1	2	270	0.00	30.231 
15:00	46.2	46.2	46.2	21	8.5	0	2	270	0.00	30.230 
15:05	46.2	46.2	46.2	19	6.2	2	4	270	0.00	30.230 
15:10	46.2	46.2	46.2	18	5.1	2	5	270	0.00	30.230 
15:15	46.1	46.1	46.1	19	6.2	1	4	270	0.00	30.233 
15:20	46.0	46.0	46.0	20	7.2	1	3	292	0.00	30.233 
15:25	45.8	45.8	45.8	20	7.0	0	1	270	0.00	30.233 
15:30	45.5	45.5	45.5	18	4.5	0	1	270	0.00	30.231 
15:35	45.4	45.4	45.4	19	5.6	1	2	270	0.00	30.231 
15:40	45.1	45.1	45.1	18	4.2	1	3	270	0.00	30.231 
15:45	44.9	44.9	44.9	18	4.0	0	2	270	0.00	30.240 
15:50	44.8	44.8	44.8	19	5.1	0	2	270	0.00	30.240 
15:55	44.6	44.6	44.6	19	4.9	1	3	270	0.00	30.240 
16:00	44.6	44.6	44.6	18	3.8	1	4	270	0.00	30.241 
16:05	44.5	44.5	44.5	18	3.7	1	3	270	0.00	30.241 
16:10	44.3	44.3	44.3	19	4.7	0	3	270	0.00	30.241 
16:15	44.2	44.2	44.2	19	4.6	0	1	270	0.00	30.236 
16:20	44.2	44.2	44.2	18	3.4	0	2	270	0.00	30.236 
16:25	44.1	44.1	44.1	19	4.5	0	2	270	0.00	30.236 
16:30	44.1	44.1	44.1	19	4.5	1	2	270	0.00	30.241 
16:35	43.9	43.9	43.9	19	4.3	0	2	270	0.00	30.241 
16:40	43.8	43.8	43.8	19	4.3	1	3	270	0.00	30.241 
16:45	43.6	43.6	43.6	19	4.1	0	1	270	0.00	30.241 
16:50	43.5	43.5	43.5	20	5.1	0	1	270	0.00	30.241 
16:55	43.3	43.3	43.3	20	5.0	0	1	270	0.00	30.241 
17:00	43.3	43.3	43.3	21	6.0	0	1	270	0.00	30.235 
17:05	43.2	43.2	43.2	20	4.9	0	1	270	0.00	30.235 
17:10	43.1	43.1	43.1	21	5.9	0	1	270	0.00	30.235 
17:15	43.1	43.1	43.1	21	5.9	0	1	270	0.00	30.235 
17:20	42.9	42.9	42.9	22	6.7	0	0	---	0.00	30.235 
17:25	42.8	42.8	42.8	22	6.6	0	1	270	0.00	30.235 
17:30	42.6	42.6	42.6	23	7.4	0	0	---	0.00	30.231 
17:35	42.5	42.5	42.5	23	7.3	0	0	---	0.00	30.231 
17:40	42.2	42.2	42.2	24	8.0	0	0	---	0.00	30.231 
17:45	41.9	41.9	41.9	23	6.8	0	0	---	0.00	30.228 
17:50	41.8	41.8	41.8	24	7.7	0	0	---	0.00	30.228 
17:55	41.5	41.5	41.5	25	8.3	0	0	---	0.00	30.228 
18:00	41.2	41.2	41.2	26	8.9	0	0	---	0.00	30.235 
18:05	41.1	41.1	41.1	26	8.9	0	0	---	0.00	30.235 
18:10	40.9	40.9	40.9	28	10.3	0	0	---	0.00	30.235 
18:15	40.6	40.6	40.6	27	9.3	0	0	---	0.00	30.234 
18:20	40.5	40.5	40.5	27	9.2	0	0	---	0.00	30.234 
18:25	40.3	40.3	40.3	27	9.0	0	0	---	0.00	30.234 
18:30	40.3	40.3	40.3	27	9.0	0	0	---	0.00	30.236 
18:35	40.2	40.2	40.2	28	9.7	0	0	---	0.00	30.236 
18:40	40.1	40.1	40.1	27	8.8	0	0	---	0.00	30.236 
18:45	40.1	40.1	40.1	26	8.0	0	0	---	0.00	30.236 
18:50	39.9	39.9	39.9	31	11.7	0	0	---	0.00	30.236 
18:55	39.9	39.9	39.9	32	12.5	0	0	---	0.00	30.236 
19:00	39.8	39.8	39.8	32	12.4	0	0	---	0.00	30.224 
19:05	39.8	39.8	39.8	33	13.1	0	0	---	0.00	30.224 
19:10	39.9	39.9	39.9	35	14.5	0	0	---	0.00	30.224 
19:15	39.9	39.9	39.9	35	14.5	0	0	---	0.00	30.222 
19:20	39.9	39.9	39.9	36	15.1	0	0	---	0.00	30.222 
19:25	39.8	39.8	39.8	36	15.0	0	0	---	0.00	30.222 
19:30	39.6	39.6	39.6	37	15.5	0	0	---	0.00	30.221 
19:35	39.5	39.5	39.5	35	14.1	0	0	---	0.00	30.221 
19:40	39.5	39.5	39.5	35	14.1	0	0	---	0.00	30.221 
19:45	39.3	39.3	39.3	37	15.2	0	0	---	0.00	30.217 
19:50	39.3	39.3	39.3	38	15.8	0	0	---	0.00	30.217 
19:55	39.2	39.2	39.2	36	14.5	0	0	---	0.00	30.217 
20:00	39.2	39.2	39.2	36	14.5	0	0	---	0.00	30.209 
20:05	39.2	39.2	39.2	39	16.3	0	0	---	0.00	30.209 
20:10	39.3	39.3	39.3	42	18.1	0	0	---	0.00	30.209 
20:15	39.3	39.3	39.3	43	18.7	0	0	---	0.00	30.207 
20:20	39.3	39.3	39.3	43	18.7	0	0	---	0.00	30.207 
20:25	39.3	39.3	39.3	42	18.1	0	0	---	0.00	30.207 
20:30	39.2	39.2	39.2	42	18.1	0	0	---	0.00	30.207 
20:35	39.2	39.2	39.2	43	18.6	0	0	---	0.00	30.207 
20:40	39.2	39.2	39.2	45	19.7	0	0	---	0.00	30.207 
20:45	39.2	39.2	39.2	45	19.7	0	0	---	0.00	30.203 
20:50	39.2	39.2	39.2	46	20.2	0	0	---	0.00	30.203 
20:55	39.2	39.2	39.2	46	20.2	0	0	---	0.00	30.203 
21:00	39.2	39.2	39.2	45	19.7	0	0	---	0.00	30.204 
21:05	39.2	39.2	39.2	43	18.6	0	0	---	0.00	30.204 
21:10	39.2	39.2	39.2	43	18.6	0	0	---	0.00	30.204 
21:15	39.2	39.2	39.2	43	18.6	0	0	---	0.00	30.209 
21:20	39.2	39.2	39.2	44	19.1	0	0	---	0.00	30.209 
21:25	39.3	39.3	39.3	44	19.2	0	0	---	0.00	30.209 
21:30	39.3	39.3	39.3	46	20.3	0	0	---	0.00	30.216 
21:35	39.3	39.3	39.3	46	20.3	0	0	---	0.00	30.216 
21:40	39.3	39.3	39.3	47	20.8	0	0	---	0.00	30.216 
21:45	39.3	39.3	39.3	49	21.8	0	2	270	0.00	30.218 
21:50	40.1	40.1	40.1	47	21.5	0	2	270	0.00	30.218 
21:55	40.6	40.6	40.6	47	22.0	0	2	270	0.00	30.218 
22:00	40.9	40.9	40.9	47	22.2	0	2	270	0.00	30.217 
22:05	40.8	40.8	40.8	46	21.6	0	1	270	0.00	30.217 
22:10	40.8	40.8	40.8	47	22.1	0	1	270	0.00	30.217 
22:15	40.8	40.8	40.8	48	22.6	0	1	248	0.00	30.215 
22:20	40.6	40.6	40.6	46	21.5	1	4	112	0.00	30.215 
22:25	40.5	40.5	40.5	48	22.4	2	6	90	0.00	30.215 
22:30	40.5	40.5	40.5	47	21.9	0	1	90	0.00	30.214 
22:35	40.3	40.3	40.3	47	21.7	0	0	---	0.00	30.214 
22:40	40.3	40.3	40.3	48	22.2	1	9	90	0.00	30.214 
22:45	40.2	40.2	40.2	50	23.1	2	4	135	0.00	30.214 
22:50	39.9	39.9	39.9	52	23.7	1	4	135	0.00	30.214 
22:55	39.6	39.6	39.6	54	24.3	1	4	90	0.00	30.214 
23:00	39.5	39.5	39.5	54	24.2	0	3	90	0.00	30.213 
23:05	39.3	39.3	39.3	54	24.1	0	1	90	0.00	30.213 
23:10	39.3	39.3	39.3	54	24.1	0	1	90	0.00	30.213 
23:15	39.3	39.3	39.3	55	24.5	0	3	90	0.00	30.211 
23:20	39.2	39.2	39.2	56	24.8	0	1	90	0.00	30.211 
23:25	39.2	39.2	39.2	57	25.3	0	2	90	0.00	30.211 
23:30	39.1	39.1	39.1	58	25.6	0	2	90	0.00	30.213 
23:35	38.9	38.9	38.9	58	25.4	0	0	---	0.00	30.213 
23:40	38.8	38.8	38.8	59	25.7	0	1	90	0.00	30.213 
23:45	38.6	38.6	38.6	61	26.3	0	1	90	0.00	30.219 
23:50	38.5	38.5	38.5	62	26.6	0	1	90	0.00	30.219 
23:55	38.3	38.3	38.3	63	26.8	0	1	90	0.00	30.219 

CoCoRaHS
IN-AL-39
A2 Web Hosting
Creative Commons License
GoDaddy
search engine by freefind advanced

loaded 2018-11-12 20:12:13 • last modified 2010-11-18 10:43:29
Privacy PolicyDisclaimer
• wx.awcolley.com is powered by PmWiki v.2002016 •
• all content (unless otherwise noted) © 2018 A W Colley